Gambier, Ohio
Current Conditions -  °F | °C
As of 8:36 AM on Saturday 20 Dec 2014 (Local Time) from K4I3 Reporting Station
Overcast Overcast  
Wind Chill: 28°   Ceiling: 1700
Heat Index: 28°   Visibility: 7mi
Dew Point: 25°   Wind: 0mph
Humidity: 86%   Direction: NA
Pressure: 30.26"   Gusts: NA
Location:  40.38°N, 82.4°W
Report Text: K4I3 201336Z AUTO 00000KT 7SM OVC017 M02/M04 A3026 RMK AO2
Loading
Personal Weather Stations






























Interactive Weather Map New forecast layout! Learn more

10-Day Weather Forecast

Advertisements
Track Severe Weather on mobile